sensor_id;sensor_type;location;lat;lon;timestamp;temperature;humidity
18648;DHT22;9453;50.294;18.644;2022-10-22T04:01:26;10.00;99.90
18648;DHT22;9453;50.294;18.644;2022-10-22T04:03:54;10.00;99.90
18648;DHT22;9453;50.294;18.644;2022-10-22T04:06:21;10.00;99.90
18648;DHT22;9453;50.294;18.644;2022-10-22T04:08:48;10.00;99.90
18648;DHT22;9453;50.294;18.644;2022-10-22T04:11:15;10.10;99.90
18648;DHT22;9453;50.294;18.644;2022-10-22T04:13:43;10.00;99.90
18648;DHT22;9453;50.294;18.644;2022-10-22T04:16:11;10.00;99.90
18648;DHT22;9453;50.294;18.644;2022-10-22T04:18:40;10.00;99.90
18648;DHT22;9453;50.294;18.644;2022-10-22T04:21:08;10.00;99.90
18648;DHT22;9453;50.294;18.644;2022-10-22T04:23:36;10.00;99.90
18648;DHT22;9453;50.294;18.644;2022-10-22T04:26:06;10.00;99.90
18648;DHT22;9453;50.294;18.644;2022-10-22T04:28:33;10.00;99.90
18648;DHT22;9453;50.294;18.644;2022-10-22T04:31:06;9.90;99.90
18648;DHT22;9453;50.294;18.644;2022-10-22T04:33:33;10.00;99.90
18648;DHT22;9453;50.294;18.644;2022-10-22T04:36:07;9.90;99.90
18648;DHT22;9453;50.294;18.644;2022-10-22T04:38:35;9.90;99.90
18648;DHT22;9453;50.294;18.644;2022-10-22T04:41:09;9.90;99.90
18648;DHT22;9453;50.294;18.644;2022-10-22T04:43:36;9.90;99.90
18648;DHT22;9453;50.294;18.644;2022-10-22T04:46:03;9.90;99.90
18648;DHT22;9453;50.294;18.644;2022-10-22T04:48:31;9.90;99.90
18648;DHT22;9453;50.294;18.644;2022-10-22T04:50:58;9.80;99.90
18648;DHT22;9453;50.294;18.644;2022-10-22T04:53:27;9.90;99.90
18648;DHT22;9453;50.294;18.644;2022-10-22T04:55:54;9.90;99.90
18648;DHT22;9453;50.294;18.644;2022-10-22T04:58:21;9.90;99.90
18648;DHT22;9453;50.294;18.644;2022-10-22T05:00:47;9.90;99.90
18648;DHT22;9453;50.294;18.644;2022-10-22T05:03:14;9.90;99.90
18648;DHT22;9453;50.294;18.644;2022-10-22T05:05:41;9.90;99.90
18648;DHT22;9453;50.294;18.644;2022-10-22T05:08:08;9.90;99.90
18648;DHT22;9453;50.294;18.644;2022-10-22T05:10:36;9.80;99.90
18648;DHT22;9453;50.294;18.644;2022-10-22T05:13:03;9.80;99.90
18648;DHT22;9453;50.294;18.644;2022-10-22T05:15:32;9.80;99.90
18648;DHT22;9453;50.294;18.644;2022-10-22T05:17:58;9.80;99.90
18648;DHT22;9453;50.294;18.644;2022-10-22T05:20:25;9.80;99.90
18648;DHT22;9453;50.294;18.644;2022-10-22T05:22:52;9.80;99.90
18648;DHT22;9453;50.294;18.644;2022-10-22T05:25:19;9.80;99.90
18648;DHT22;9453;50.294;18.644;2022-10-22T05:27:49;9.80;99.90
18648;DHT22;9453;50.294;18.644;2022-10-22T05:30:16;9.90;99.90
18648;DHT22;9453;50.294;18.644;2022-10-22T05:32:43;9.90;99.90
18648;DHT22;9453;50.294;18.644;2022-10-22T05:35:09;9.90;99.90
18648;DHT22;9453;50.294;18.644;2022-10-22T05:37:36;9.90;99.90
18648;DHT22;9453;50.294;18.644;2022-10-22T05:40:04;9.90;99.90
18648;DHT22;9453;50.294;18.644;2022-10-22T05:42:31;9.90;99.90
18648;DHT22;9453;50.294;18.644;2022-10-22T05:45:00;10.00;99.90
18648;DHT22;9453;50.294;18.644;2022-10-22T05:47:28;10.00;99.90
18648;DHT22;9453;50.294;18.644;2022-10-22T05:49:55;10.10;99.90
18648;DHT22;9453;50.294;18.644;2022-10-22T05:52:22;10.10;99.90
18648;DHT22;9453;50.294;18.644;2022-10-22T05:54:49;10.20;99.90
18648;DHT22;9453;50.294;18.644;2022-10-22T05:57:16;10.20;99.90
18648;DHT22;9453;50.294;18.644;2022-10-22T05:59:43;10.30;99.90
18648;DHT22;9453;50.294;18.644;2022-10-22T06:02:11;10.30;99.90
18648;DHT22;9453;50.294;18.644;2022-10-22T06:04:38;10.40;99.90
18648;DHT22;9453;50.294;18.644;2022-10-22T06:07:07;10.40;99.90
18648;DHT22;9453;50.294;18.644;2022-10-22T06:09:36;10.40;99.90
18648;DHT22;9453;50.294;18.644;2022-10-22T06:12:03;10.50;99.90
18648;DHT22;9453;50.294;18.644;2022-10-22T06:14:33;10.50;99.90
18648;DHT22;9453;50.294;18.644;2022-10-22T06:17:00;10.60;99.90
18648;DHT22;9453;50.294;18.644;2022-10-22T06:19:28;10.60;99.90
18648;DHT22;9453;50.294;18.644;2022-10-22T06:21:55;10.60;99.90
18648;DHT22;9453;50.294;18.644;2022-10-22T06:24:22;10.60;99.90
18648;DHT22;9453;50.294;18.644;2022-10-22T06:26:49;10.60;99.90
18648;DHT22;9453;50.294;18.644;2022-10-22T06:29:16;10.60;99.90
18648;DHT22;9453;50.294;18.644;2022-10-22T06:31:43;10.60;99.90
18648;DHT22;9453;50.294;18.644;2022-10-22T06:34:12;10.70;99.90
18648;DHT22;9453;50.294;18.644;2022-10-22T06:36:40;10.70;99.90
18648;DHT22;9453;50.294;18.644;2022-10-22T06:39:10;10.70;99.90
18648;DHT22;9453;50.294;18.644;2022-10-22T06:41:37;10.70;99.90
18648;DHT22;9453;50.294;18.644;2022-10-22T06:44:04;10.80;99.90
18648;DHT22;9453;50.294;18.644;2022-10-22T06:46:31;10.80;99.90
18648;DHT22;9453;50.294;18.644;2022-10-22T06:49:00;10.80;99.90
18648;DHT22;9453;50.294;18.644;2022-10-22T06:51:30;10.90;99.90
18648;DHT22;9453;50.294;18.644;2022-10-22T06:53:58;11.00;99.90
18648;DHT22;9453;50.294;18.644;2022-10-22T06:56:27;11.10;99.90
18648;DHT22;9453;50.294;18.644;2022-10-22T06:58:55;11.20;99.90
18648;DHT22;9453;50.294;18.644;2022-10-22T07:01:24;11.40;99.90
18648;DHT22;9453;50.294;18.644;2022-10-22T07:03:53;11.50;99.90
18648;DHT22;9453;50.294;18.644;2022-10-22T07:06:22;11.70;99.90
18648;DHT22;9453;50.294;18.644;2022-10-22T07:08:49;11.90;99.90
18648;DHT22;9453;50.294;18.644;2022-10-22T07:11:19;12.00;99.90
18648;DHT22;9453;50.294;18.644;2022-10-22T07:13:47;12.10;99.80
18648;DHT22;9453;50.294;18.644;2022-10-22T07:16:16;12.20;99.30
18648;DHT22;9453;50.294;18.644;2022-10-22T07:18:44;12.30;99.00
18648;DHT22;9453;50.294;18.644;2022-10-22T07:21:12;12.40;98.80
18648;DHT22;9453;50.294;18.644;2022-10-22T07:23:39;12.40;98.10
18648;DHT22;9453;50.294;18.644;2022-10-22T07:26:07;12.50;98.00
18648;DHT22;9453;50.294;18.644;2022-10-22T07:28:57;12.60;98.00
18648;DHT22;9453;50.294;18.644;2022-10-22T07:31:24;12.60;97.80
18648;DHT22;9453;50.294;18.644;2022-10-22T07:33:51;12.70;97.50
18648;DHT22;9453;50.294;18.644;2022-10-22T07:36:18;12.70;97.60
18648;DHT22;9453;50.294;18.644;2022-10-22T07:38:48;12.70;97.10
18648;DHT22;9453;50.294;18.644;2022-10-22T07:41:15;12.80;97.70
18648;DHT22;9453;50.294;18.644;2022-10-22T07:43:43;12.90;96.90
18648;DHT22;9453;50.294;18.644;2022-10-22T07:46:11;12.90;97.00
18648;DHT22;9453;50.294;18.644;2022-10-22T07:48:38;12.90;97.00
18648;DHT22;9453;50.294;18.644;2022-10-22T07:51:05;12.90;96.90
18648;DHT22;9453;50.294;18.644;2022-10-22T07:53:33;13.00;97.10
18648;DHT22;9453;50.294;18.644;2022-10-22T07:56:00;13.10;97.10
18648;DHT22;9453;50.294;18.644;2022-10-22T07:58:27;13.10;96.90
18648;DHT22;9453;50.294;18.644;2022-10-22T08:00:55;13.10;96.40
18648;DHT22;9453;50.294;18.644;2022-10-22T08:03:27;13.20;96.60
18648;DHT22;9453;50.294;18.644;2022-10-22T08:05:54;13.30;96.50
18648;DHT22;9453;50.294;18.644;2022-10-22T08:08:21;13.50;96.70
18648;DHT22;9453;50.294;18.644;2022-10-22T08:10:50;13.50;96.20
18648;DHT22;9453;50.294;18.644;2022-10-22T08:13:18;13.50;96.00
18648;DHT22;9453;50.294;18.644;2022-10-22T08:15:45;13.70;95.70
18648;DHT22;9453;50.294;18.644;2022-10-22T08:18:12;13.80;95.50
18648;DHT22;9453;50.294;18.644;2022-10-22T08:20:41;13.80;95.50
18648;DHT22;9453;50.294;18.644;2022-10-22T08:23:08;13.90;95.50
18648;DHT22;9453;50.294;18.644;2022-10-22T08:25:35;13.90;95.40
18648;DHT22;9453;50.294;18.644;2022-10-22T08:28:02;14.00;94.90
18648;DHT22;9453;50.294;18.644;2022-10-22T08:30:29;14.00;94.40
18648;DHT22;9453;50.294;18.644;2022-10-22T08:32:58;13.90;94.30
18648;DHT22;9453;50.294;18.644;2022-10-22T08:35:25;14.00;94.40
18648;DHT22;9453;50.294;18.644;2022-10-22T08:37:54;14.00;94.40
18648;DHT22;9453;50.294;18.644;2022-10-22T08:40:24;14.00;94.40
18648;DHT22;9453;50.294;18.644;2022-10-22T08:43:16;14.00;94.40
18648;DHT22;9453;50.294;18.644;2022-10-22T08:45:54;14.00;94.10
18648;DHT22;9453;50.294;18.644;2022-10-22T08:48:40;14.00;94.00
18648;DHT22;9453;50.294;18.644;2022-10-22T08:51:10;14.00;94.20
18648;DHT22;9453;50.294;18.644;2022-10-22T08:53:44;14.00;94.30
18648;DHT22;9453;50.294;18.644;2022-10-22T08:56:16;14.00;94.40
18648;DHT22;9453;50.294;18.644;2022-10-22T08:58:46;14.00;94.20
18648;DHT22;9453;50.294;18.644;2022-10-22T09:01:20;14.00;94.30
18648;DHT22;9453;50.294;18.644;2022-10-22T09:03:51;14.00;94.40
18648;DHT22;9453;50.294;18.644;2022-10-22T09:06:21;14.10;94.80
18648;DHT22;9453;50.294;18.644;2022-10-22T09:08:51;14.10;94.90
18648;DHT22;9453;50.294;18.644;2022-10-22T09:11:23;14.20;94.80
18648;DHT22;9453;50.294;18.644;2022-10-22T09:13:51;14.10;94.40
18648;DHT22;9453;50.294;18.644;2022-10-22T09:16:24;14.20;94.50
18648;DHT22;9453;50.294;18.644;2022-10-22T09:19:05;14.20;94.30
18648;DHT22;9453;50.294;18.644;2022-10-22T09:21:40;14.20;94.10
18648;DHT22;9453;50.294;18.644;2022-10-22T09:24:12;14.30;94.10
18648;DHT22;9453;50.294;18.644;2022-10-22T09:26:41;14.30;94.20
18648;DHT22;9453;50.294;18.644;2022-10-22T09:29:16;14.30;94.20
18648;DHT22;9453;50.294;18.644;2022-10-22T09:31:44;14.30;94.30
18648;DHT22;9453;50.294;18.644;2022-10-22T09:34:13;14.20;94.40
18648;DHT22;9453;50.294;18.644;2022-10-22T09:36:41;14.20;94.40
18648;DHT22;9453;50.294;18.644;2022-10-22T09:39:23;14.20;94.40
18648;DHT22;9453;50.294;18.644;2022-10-22T09:41:51;14.20;94.50
18648;DHT22;9453;50.294;18.644;2022-10-22T09:44:18;14.10;94.40
18648;DHT22;9453;50.294;18.644;2022-10-22T09:46:45;14.10;94.40
18648;DHT22;9453;50.294;18.644;2022-10-22T09:49:14;14.10;94.40
18648;DHT22;9453;50.294;18.644;2022-10-22T09:51:48;14.00;94.40
18648;DHT22;9453;50.294;18.644;2022-10-22T09:54:18;14.10;94.60
18648;DHT22;9453;50.294;18.644;2022-10-22T09:57:02;14.10;94.90
18648;DHT22;9453;50.294;18.644;2022-10-22T09:59:31;14.10;95.00
18648;DHT22;9453;50.294;18.644;2022-10-22T10:02:02;14.00;95.10
18648;DHT22;9453;50.294;18.644;2022-10-22T10:04:33;14.00;95.30
18648;DHT22;9453;50.294;18.644;2022-10-22T10:07:01;14.00;95.70
18648;DHT22;9453;50.294;18.644;2022-10-22T10:09:30;14.00;95.90
18648;DHT22;9453;50.294;18.644;2022-10-22T10:12:13;14.00;96.10
18648;DHT22;9453;50.294;18.644;2022-10-22T10:14:50;14.00;96.20
18648;DHT22;9453;50.294;18.644;2022-10-22T10:17:27;14.00;96.40
18648;DHT22;9453;50.294;18.644;2022-10-22T10:20:02;14.00;96.30
18648;DHT22;9453;50.294;18.644;2022-10-22T10:22:43;14.10;96.60
18648;DHT22;9453;50.294;18.644;2022-10-22T10:25:35;14.10;96.60
18648;DHT22;9453;50.294;18.644;2022-10-22T10:28:17;14.10;96.80
18648;DHT22;9453;50.294;18.644;2022-10-22T10:30:53;14.20;96.70
18648;DHT22;9453;50.294;18.644;2022-10-22T10:33:32;14.30;96.90
18648;DHT22;9453;50.294;18.644;2022-10-22T10:36:09;14.40;96.80
18648;DHT22;9453;50.294;18.644;2022-10-22T10:38:43;14.40;96.70
18648;DHT22;9453;50.294;18.644;2022-10-22T10:41:19;14.40;96.70
18648;DHT22;9453;50.294;18.644;2022-10-22T10:43:58;14.40;96.70
18648;DHT22;9453;50.294;18.644;2022-10-22T10:46:34;14.50;96.90
18648;DHT22;9453;50.294;18.644;2022-10-22T10:49:08;14.50;97.00
18648;DHT22;9453;50.294;18.644;2022-10-22T10:51:48;14.50;97.00
18648;DHT22;9453;50.294;18.644;2022-10-22T10:54:30;14.50;97.00
18648;DHT22;9453;50.294;18.644;2022-10-22T10:57:03;14.40;97.20
18648;DHT22;9453;50.294;18.644;2022-10-22T10:59:55;14.50;97.40
18648;DHT22;9453;50.294;18.644;2022-10-22T11:02:46;14.50;97.60
18648;DHT22;9453;50.294;18.644;2022-10-22T11:05:31;14.50;97.90
18648;DHT22;9453;50.294;18.644;2022-10-22T11:08:03;14.50;98.20
18648;DHT22;9453;50.294;18.644;2022-10-22T11:10:35;14.50;98.20
18648;DHT22;9453;50.294;18.644;2022-10-22T11:13:10;14.50;98.60
18648;DHT22;9453;50.294;18.644;2022-10-22T11:15:41;14.40;99.10
18648;DHT22;9453;50.294;18.644;2022-10-22T11:18:16;14.60;99.20
18648;DHT22;9453;50.294;18.644;2022-10-22T11:20:54;14.60;98.80
18648;DHT22;9453;50.294;18.644;2022-10-22T11:23:27;14.60;99.10
18648;DHT22;9453;50.294;18.644;2022-10-22T11:25:56;14.50;98.90
18648;DHT22;9453;50.294;18.644;2022-10-22T11:28:26;14.50;98.90
18648;DHT22;9453;50.294;18.644;2022-10-22T11:31:00;14.50;99.10
18648;DHT22;9453;50.294;18.644;2022-10-22T11:33:34;14.50;99.10
18648;DHT22;9453;50.294;18.644;2022-10-22T11:36:05;14.60;99.10
18648;DHT22;9453;50.294;18.644;2022-10-22T11:38:33;14.60;99.20
18648;DHT22;9453;50.294;18.644;2022-10-22T11:41:04;14.70;99.30
18648;DHT22;9453;50.294;18.644;2022-10-22T11:43:32;14.70;99.40
18648;DHT22;9453;50.294;18.644;2022-10-22T11:46:08;14.70;99.40
18648;DHT22;9453;50.294;18.644;2022-10-22T11:49:01;14.70;99.20
18648;DHT22;9453;50.294;18.644;2022-10-22T11:51:32;14.70;99.20
18648;DHT22;9453;50.294;18.644;2022-10-22T11:54:02;14.70;99.40
18648;DHT22;9453;50.294;18.644;2022-10-22T11:56:51;14.70;99.50
18648;DHT22;9453;50.294;18.644;2022-10-22T11:59:38;14.70;99.70
18648;DHT22;9453;50.294;18.644;2022-10-22T12:08:22;14.50;99.90
18648;DHT22;9453;50.294;18.644;2022-10-22T12:10:58;14.50;99.90
18648;DHT22;9453;50.294;18.644;2022-10-22T12:13:29;14.40;99.90
18648;DHT22;9453;50.294;18.644;2022-10-22T12:15:57;14.30;99.90
18648;DHT22;9453;50.294;18.644;2022-10-22T12:18:28;14.30;99.90
18648;DHT22;9453;50.294;18.644;2022-10-22T12:20:57;14.30;99.90
18648;DHT22;9453;50.294;18.644;2022-10-22T12:23:29;14.30;99.90
18648;DHT22;9453;50.294;18.644;2022-10-22T12:25:57;14.30;99.90
18648;DHT22;9453;50.294;18.644;2022-10-22T12:28:23;14.30;99.90
18648;DHT22;9453;50.294;18.644;2022-10-22T12:30:50;14.30;99.90
18648;DHT22;9453;50.294;18.644;2022-10-22T12:33:19;14.20;99.90
18648;DHT22;9453;50.294;18.644;2022-10-22T12:35:47;14.20;99.90
18648;DHT22;9453;50.294;18.644;2022-10-22T12:38:19;14.20;99.90
18648;DHT22;9453;50.294;18.644;2022-10-22T12:40:48;14.20;99.90
18648;DHT22;9453;50.294;18.644;2022-10-22T12:43:17;14.10;99.90
18648;DHT22;9453;50.294;18.644;2022-10-22T12:45:46;14.20;99.90
18648;DHT22;9453;50.294;18.644;2022-10-22T12:48:16;14.10;99.90
18648;DHT22;9453;50.294;18.644;2022-10-22T12:50:47;14.20;99.90
18648;DHT22;9453;50.294;18.644;2022-10-22T12:53:18;14.20;99.90
18648;DHT22;9453;50.294;18.644;2022-10-22T12:55:50;14.10;99.90
18648;DHT22;9453;50.294;18.644;2022-10-22T12:58:20;14.10;99.90
18648;DHT22;9453;50.294;18.644;2022-10-22T13:00:48;14.00;99.90
18648;DHT22;9453;50.294;18.644;2022-10-22T13:03:27;13.90;99.90
18648;DHT22;9453;50.294;18.644;2022-10-22T13:05:55;13.90;99.90
18648;DHT22;9453;50.294;18.644;2022-10-22T13:08:25;13.80;99.90
18648;DHT22;9453;50.294;18.644;2022-10-22T13:10:54;13.80;99.90
18648;DHT22;9453;50.294;18.644;2022-10-22T13:13:30;13.70;99.90
18648;DHT22;9453;50.294;18.644;2022-10-22T13:16:15;13.70;99.90
18648;DHT22;9453;50.294;18.644;2022-10-22T13:18:43;13.70;99.90
18648;DHT22;9453;50.294;18.644;2022-10-22T13:21:25;13.60;99.90
18648;DHT22;9453;50.294;18.644;2022-10-22T13:23:55;13.60;99.90
18648;DHT22;9453;50.294;18.644;2022-10-22T13:26:30;13.60;99.90
18648;DHT22;9453;50.294;18.644;2022-10-22T13:28:58;13.50;99.90
18648;DHT22;9453;50.294;18.644;2022-10-22T13:31:28;13.50;99.90
18648;DHT22;9453;50.294;18.644;2022-10-22T13:34:00;13.30;99.90
18648;DHT22;9453;50.294;18.644;2022-10-22T13:36:28;13.40;99.90
18648;DHT22;9453;50.294;18.644;2022-10-22T13:38:55;13.30;99.90
18648;DHT22;9453;50.294;18.644;2022-10-22T13:41:25;13.20;99.90
18648;DHT22;9453;50.294;18.644;2022-10-22T13:43:54;13.30;99.90
18648;DHT22;9453;50.294;18.644;2022-10-22T13:46:22;13.20;99.90
18648;DHT22;9453;50.294;18.644;2022-10-22T13:48:51;13.20;99.90
18648;DHT22;9453;50.294;18.644;2022-10-22T13:51:22;13.20;99.90
18648;DHT22;9453;50.294;18.644;2022-10-22T13:53:52;13.20;99.90
18648;DHT22;9453;50.294;18.644;2022-10-22T13:56:20;13.20;99.90
18648;DHT22;9453;50.294;18.644;2022-10-22T13:58:50;13.20;99.90
18648;DHT22;9453;50.294;18.644;2022-10-22T14:01:20;13.20;99.90
18648;DHT22;9453;50.294;18.644;2022-10-22T14:03:48;13.20;99.90
18648;DHT22;9453;50.294;18.644;2022-10-22T14:06:17;13.20;99.90
18648;DHT22;9453;50.294;18.644;2022-10-22T14:08:46;13.10;99.90
18648;DHT22;9453;50.294;18.644;2022-10-22T14:11:15;13.10;99.90
18648;DHT22;9453;50.294;18.644;2022-10-22T14:13:42;13.10;99.90
18648;DHT22;9453;50.294;18.644;2022-10-22T14:16:15;13.00;99.90
18648;DHT22;9453;50.294;18.644;2022-10-22T14:18:43;13.00;99.90
18648;DHT22;9453;50.294;18.644;2022-10-22T14:21:12;13.00;99.90
18648;DHT22;9453;50.294;18.644;2022-10-22T14:23:40;13.00;99.90
18648;DHT22;9453;50.294;18.644;2022-10-22T14:26:14;13.00;99.90
18648;DHT22;9453;50.294;18.644;2022-10-22T14:28:45;12.90;99.90
18648;DHT22;9453;50.294;18.644;2022-10-22T14:31:14;12.90;99.90
18648;DHT22;9453;50.294;18.644;2022-10-22T14:33:42;12.90;99.90
18648;DHT22;9453;50.294;18.644;2022-10-22T14:36:11;12.90;99.90
18648;DHT22;9453;50.294;18.644;2022-10-22T14:38:39;12.90;99.90
18648;DHT22;9453;50.294;18.644;2022-10-22T14:41:14;12.90;99.90
18648;DHT22;9453;50.294;18.644;2022-10-22T14:43:42;12.90;99.90
18648;DHT22;9453;50.294;18.644;2022-10-22T14:46:10;12.90;99.90
18648;DHT22;9453;50.294;18.644;2022-10-22T14:48:40;12.90;99.90
18648;DHT22;9453;50.294;18.644;2022-10-22T14:51:09;12.90;99.90
18648;DHT22;9453;50.294;18.644;2022-10-22T14:53:37;12.90;99.90
18648;DHT22;9453;50.294;18.644;2022-10-22T14:56:04;12.80;99.90
18648;DHT22;9453;50.294;18.644;2022-10-22T14:58:31;12.80;99.90
18648;DHT22;9453;50.294;18.644;2022-10-22T15:01:00;12.80;99.90
18648;DHT22;9453;50.294;18.644;2022-10-22T15:03:27;12.80;99.90
18648;DHT22;9453;50.294;18.644;2022-10-22T15:05:56;12.80;99.90
18648;DHT22;9453;50.294;18.644;2022-10-22T15:08:23;12.80;99.90
18648;DHT22;9453;50.294;18.644;2022-10-22T15:10:59;12.70;99.90
18648;DHT22;9453;50.294;18.644;2022-10-22T15:13:26;12.80;99.90
18648;DHT22;9453;50.294;18.644;2022-10-22T15:15:54;12.70;99.90
18648;DHT22;9453;50.294;18.644;2022-10-22T15:18:21;12.70;99.90
18648;DHT22;9453;50.294;18.644;2022-10-22T15:20:56;12.70;99.90
18648;DHT22;9453;50.294;18.644;2022-10-22T15:23:23;12.70;99.90
18648;DHT22;9453;50.294;18.644;2022-10-22T15:25:50;12.70;99.90
18648;DHT22;9453;50.294;18.644;2022-10-22T15:28:17;12.70;99.90
18648;DHT22;9453;50.294;18.644;2022-10-22T15:30:44;12.70;99.90
18648;DHT22;9453;50.294;18.644;2022-10-22T15:33:11;12.60;99.90
18648;DHT22;9453;50.294;18.644;2022-10-22T15:35:38;12.60;99.90
18648;DHT22;9453;50.294;18.644;2022-10-22T15:38:06;12.60;99.90
18648;DHT22;9453;50.294;18.644;2022-10-22T15:40:33;12.60;99.90
18648;DHT22;9453;50.294;18.644;2022-10-22T15:43:00;12.60;99.90
18648;DHT22;9453;50.294;18.644;2022-10-22T15:45:27;12.50;99.90
18648;DHT22;9453;50.294;18.644;2022-10-22T15:47:54;12.50;99.90
18648;DHT22;9453;50.294;18.644;2022-10-22T15:50:21;12.50;99.90
18648;DHT22;9453;50.294;18.644;2022-10-22T15:52:48;12.50;99.90
18648;DHT22;9453;50.294;18.644;2022-10-22T15:55:16;12.50;99.90
18648;DHT22;9453;50.294;18.644;2022-10-22T15:57:43;12.40;99.90
18648;DHT22;9453;50.294;18.644;2022-10-22T16:00:11;12.40;99.90
18648;DHT22;9453;50.294;18.644;2022-10-22T16:02:38;12.40;99.90
18648;DHT22;9453;50.294;18.644;2022-10-22T16:05:06;12.40;99.90
18648;DHT22;9453;50.294;18.644;2022-10-22T16:07:33;12.40;99.90
18648;DHT22;9453;50.294;18.644;2022-10-22T16:10:00;12.40;99.90
18648;DHT22;9453;50.294;18.644;2022-10-22T16:12:28;12.30;99.90
18648;DHT22;9453;50.294;18.644;2022-10-22T16:14:55;12.30;99.90
18648;DHT22;9453;50.294;18.644;2022-10-22T16:17:22;12.20;99.90
18648;DHT22;9453;50.294;18.644;2022-10-22T16:19:49;12.30;99.90
18648;DHT22;9453;50.294;18.644;2022-10-22T16:22:16;12.20;99.90
18648;DHT22;9453;50.294;18.644;2022-10-22T16:24:42;12.20;99.90
18648;DHT22;9453;50.294;18.644;2022-10-22T16:27:09;12.20;99.90
18648;DHT22;9453;50.294;18.644;2022-10-22T16:29:38;12.20;99.90
18648;DHT22;9453;50.294;18.644;2022-10-22T16:32:05;12.20;99.90
18648;DHT22;9453;50.294;18.644;2022-10-22T16:34:32;12.20;99.90
18648;DHT22;9453;50.294;18.644;2022-10-22T16:37:00;12.30;99.90
18648;DHT22;9453;50.294;18.644;2022-10-22T16:39:27;12.30;99.90
18648;DHT22;9453;50.294;18.644;2022-10-22T16:41:54;12.30;99.90
18648;DHT22;9453;50.294;18.644;2022-10-22T16:44:21;12.30;99.90
18648;DHT22;9453;50.294;18.644;2022-10-22T16:46:49;12.30;99.90
18648;DHT22;9453;50.294;18.644;2022-10-22T16:49:16;12.30;99.90
18648;DHT22;9453;50.294;18.644;2022-10-22T16:51:43;12.30;99.90
18648;DHT22;9453;50.294;18.644;2022-10-22T16:54:10;12.30;99.90
18648;DHT22;9453;50.294;18.644;2022-10-22T16:56:37;12.30;99.90
18648;DHT22;9453;50.294;18.644;2022-10-22T16:59:05;12.30;99.90
18648;DHT22;9453;50.294;18.644;2022-10-22T17:01:32;12.30;99.90
18648;DHT22;9453;50.294;18.644;2022-10-22T17:04:00;12.30;99.90
18648;DHT22;9453;50.294;18.644;2022-10-22T17:06:27;12.30;99.90
18648;DHT22;9453;50.294;18.644;2022-10-22T17:08:56;12.30;99.90
18648;DHT22;9453;50.294;18.644;2022-10-22T17:11:23;12.30;99.90
18648;DHT22;9453;50.294;18.644;2022-10-22T17:13:52;12.30;99.90
18648;DHT22;9453;50.294;18.644;2022-10-22T17:16:21;12.30;99.90
18648;DHT22;9453;50.294;18.644;2022-10-22T17:18:49;12.30;99.90
18648;DHT22;9453;50.294;18.644;2022-10-22T17:21:18;12.30;99.90
18648;DHT22;9453;50.294;18.644;2022-10-22T17:23:46;12.30;99.90
18648;DHT22;9453;50.294;18.644;2022-10-22T17:26:15;12.20;99.90
18648;DHT22;9453;50.294;18.644;2022-10-22T17:28:43;12.20;99.90
18648;DHT22;9453;50.294;18.644;2022-10-22T17:31:15;12.30;99.90
18648;DHT22;9453;50.294;18.644;2022-10-22T17:33:43;12.20;99.90
18648;DHT22;9453;50.294;18.644;2022-10-22T17:36:11;12.20;99.90
18648;DHT22;9453;50.294;18.644;2022-10-22T17:38:41;12.20;99.90
18648;DHT22;9453;50.294;18.644;2022-10-22T17:41:09;12.20;99.90
18648;DHT22;9453;50.294;18.644;2022-10-22T17:43:42;12.20;99.90
18648;DHT22;9453;50.294;18.644;2022-10-22T17:46:15;12.20;99.90
18648;DHT22;9453;50.294;18.644;2022-10-22T17:48:43;12.20;99.90
18648;DHT22;9453;50.294;18.644;2022-10-22T17:51:11;12.20;99.90
18648;DHT22;9453;50.294;18.644;2022-10-22T17:53:40;12.20;99.90
18648;DHT22;9453;50.294;18.644;2022-10-22T17:56:13;12.20;99.90
18648;DHT22;9453;50.294;18.644;2022-10-22T17:58:41;12.20;99.90
18648;DHT22;9453;50.294;18.644;2022-10-22T18:01:16;12.20;99.90
18648;DHT22;9453;50.294;18.644;2022-10-22T18:03:43;12.20;99.90
18648;DHT22;9453;50.294;18.644;2022-10-22T18:06:10;12.20;99.90
18648;DHT22;9453;50.294;18.644;2022-10-22T18:08:37;12.20;99.90
18648;DHT22;9453;50.294;18.644;2022-10-22T18:11:10;12.20;99.90
18648;DHT22;9453;50.294;18.644;2022-10-22T18:13:37;12.20;99.90
18648;DHT22;9453;50.294;18.644;2022-10-22T18:16:04;12.20;99.90
18648;DHT22;9453;50.294;18.644;2022-10-22T18:18:33;12.20;99.90
18648;DHT22;9453;50.294;18.644;2022-10-22T18:21:00;12.20;99.90
18648;DHT22;9453;50.294;18.644;2022-10-22T18:23:28;12.20;99.90
18648;DHT22;9453;50.294;18.644;2022-10-22T18:25:55;12.20;99.90
18648;DHT22;9453;50.294;18.644;2022-10-22T18:28:23;12.30;99.90
18648;DHT22;9453;50.294;18.644;2022-10-22T18:30:50;12.20;99.90
18648;DHT22;9453;50.294;18.644;2022-10-22T18:33:17;12.20;99.90
18648;DHT22;9453;50.294;18.644;2022-10-22T18:35:49;12.20;99.90
18648;DHT22;9453;50.294;18.644;2022-10-22T18:38:16;12.20;99.90
18648;DHT22;9453;50.294;18.644;2022-10-22T18:40:47;12.20;99.90
18648;DHT22;9453;50.294;18.644;2022-10-22T18:43:15;12.20;99.90
18648;DHT22;9453;50.294;18.644;2022-10-22T18:45:45;12.20;99.90
18648;DHT22;9453;50.294;18.644;2022-10-22T18:48:14;12.20;99.90
18648;DHT22;9453;50.294;18.644;2022-10-22T18:50:41;12.20;99.90
18648;DHT22;9453;50.294;18.644;2022-10-22T18:53:08;12.20;99.90
18648;DHT22;9453;50.294;18.644;2022-10-22T18:55:37;12.20;99.90
18648;DHT22;9453;50.294;18.644;2022-10-22T18:58:04;12.20;99.90
18648;DHT22;9453;50.294;18.644;2022-10-22T19:00:31;12.20;99.90
18648;DHT22;9453;50.294;18.644;2022-10-22T19:03:00;12.20;99.90
18648;DHT22;9453;50.294;18.644;2022-10-22T19:05:27;12.20;99.90
18648;DHT22;9453;50.294;18.644;2022-10-22T19:07:54;12.20;99.90
18648;DHT22;9453;50.294;18.644;2022-10-22T19:10:21;12.20;99.90
18648;DHT22;9453;50.294;18.644;2022-10-22T19:12:48;12.20;99.90
18648;DHT22;9453;50.294;18.644;2022-10-22T19:15:15;12.20;99.90
18648;DHT22;9453;50.294;18.644;2022-10-22T19:17:42;12.20;99.90
18648;DHT22;9453;50.294;18.644;2022-10-22T19:20:12;12.20;99.90
18648;DHT22;9453;50.294;18.644;2022-10-22T19:22:39;12.20;99.90
18648;DHT22;9453;50.294;18.644;2022-10-22T19:25:07;12.20;99.90
18648;DHT22;9453;50.294;18.644;2022-10-22T19:27:34;12.20;99.90
18648;DHT22;9453;50.294;18.644;2022-10-22T19:30:02;12.20;99.90
18648;DHT22;9453;50.294;18.644;2022-10-22T19:32:29;12.30;99.90
18648;DHT22;9453;50.294;18.644;2022-10-22T19:34:56;12.30;99.90
18648;DHT22;9453;50.294;18.644;2022-10-22T19:37:24;12.30;99.90
18648;DHT22;9453;50.294;18.644;2022-10-22T19:39:51;12.20;99.90
18648;DHT22;9453;50.294;18.644;2022-10-22T19:42:18;12.30;99.90
18648;DHT22;9453;50.294;18.644;2022-10-22T19:44:45;12.30;99.90
18648;DHT22;9453;50.294;18.644;2022-10-22T19:47:12;12.30;99.90
18648;DHT22;9453;50.294;18.644;2022-10-22T19:49:40;12.40;99.90
18648;DHT22;9453;50.294;18.644;2022-10-22T19:52:07;12.30;99.90
18648;DHT22;9453;50.294;18.644;2022-10-22T19:54:35;12.40;99.90